Time;durP1;ratioP1;P1;durP2;ratioP2;P2;SDS_P1;SDS_P2;PMS_P1;PMS_P2;Temp;Humidity;BMP_temperature;BMP_pressure;BME280_temperature;BME280_humidity;BME280_pressure;Samples;Min_cycle;Max_cycle;Signal;HPM_P1;HPM_P2
2023/03/25 00:00:21;;;;;;;5.85;5.38;;;;;;;;;;5117856;28;20047;-91
2023/03/25 00:02:49;;;;;;;4.05;3.85;;;;;;;;;;5117186;28;20047;-91
2023/03/25 00:05:16;;;;;;;6.32;5.65;;;;;;;;;;5118263;28;20047;-91
2023/03/25 00:07:43;;;;;;;7.05;5.53;;;;;;;;;;5117189;27;20105;-91
2023/03/25 00:10:10;;;;;;;5.82;4.88;;;;;;;;;;5114631;28;20051;-92
2023/03/25 00:12:37;;;;;;;4.25;4.05;;;;;;;;;;5116942;28;20055;-92
2023/03/25 00:15:04;;;;;;;5.32;4.93;;;;;;;;;;5117094;28;20047;-92
2023/03/25 00:17:32;;;;;;;4.38;4.18;;;;;;;;;;5117057;28;20048;-92
2023/03/25 00:20:01;;;;;;;6.72;6.18;;;;;;;;;;5116899;28;20050;-92
2023/03/25 00:22:27;;;;;;;5.45;3.30;;;;;;;;;;5116372;28;20051;-93
2023/03/25 00:24:54;;;;;;;6.78;6.20;;;;;;;;;;5116642;28;20062;-92
2023/03/25 00:27:20;;;;;;;8.23;7.53;;;;;;;;;;5114949;28;20426;-92
2023/03/25 00:29:47;;;;;;;7.03;5.90;;;;;;;;;;5116351;28;20051;-92
2023/03/25 00:32:14;;;;;;;4.85;4.45;;;;;;;;;;5116534;27;20112;-91
2023/03/25 00:34:46;;;;;;;6.50;6.05;;;;;;;;;;5116561;28;20043;-91
2023/03/25 00:37:16;;;;;;;5.68;5.38;;;;;;;;;;5116437;28;20403;-91
2023/03/25 00:39:43;;;;;;;5.47;5.05;;;;;;;;;;5116228;28;20048;-92
2023/03/25 00:42:12;;;;;;;5.43;5.03;;;;;;;;;;5115938;28;20077;-92
2023/03/25 00:44:39;;;;;;;4.15;3.65;;;;;;;;;;5116361;28;20101;-92
2023/03/25 00:47:06;;;;;;;3.78;3.58;;;;;;;;;;5116228;28;20044;-91
2023/03/25 00:49:32;;;;;;;3.97;3.67;;;;;;;;;;5116305;27;20044;-92
2023/03/25 00:52:00;;;;;;;4.90;4.60;;;;;;;;;;5116195;28;20052;-92
2023/03/25 00:54:27;;;;;;;6.45;3.92;;;;;;;;;;5116514;27;20100;-92
2023/03/25 00:56:55;;;;;;;4.60;4.35;;;;;;;;;;5115172;28;20043;-92
2023/03/25 00:59:21;;;;;;;5.55;5.15;;;;;;;;;;5115916;27;20051;-92
2023/03/25 01:01:48;;;;;;;4.93;4.60;;;;;;;;;;5114408;28;20452;-92
2023/03/25 01:04:15;;;;;;;3.92;3.72;;;;;;;;;;5098009;28;20056;-92
2023/03/25 01:06:42;;;;;;;5.50;5.20;;;;;;;;;;5094931;28;20044;-93
2023/03/25 01:09:14;;;;;;;4.00;3.80;;;;;;;;;;5095543;28;20048;-93
2023/03/25 01:11:41;;;;;;;5.03;4.28;;;;;;;;;;5095562;28;20048;-92
2023/03/25 01:14:09;;;;;;;6.63;6.22;;;;;;;;;;5095513;28;20446;-92
2023/03/25 01:16:36;;;;;;;4.43;3.72;;;;;;;;;;5094693;28;20070;-91
2023/03/25 01:19:02;;;;;;;5.13;4.70;;;;;;;;;;5098487;28;20062;-93
2023/03/25 01:21:32;;;;;;;3.78;3.47;;;;;;;;;;5115596;28;20059;-92
2023/03/25 01:23:59;;;;;;;5.80;5.35;;;;;;;;;;5116612;28;20054;-93
2023/03/25 01:26:27;;;;;;;5.85;5.43;;;;;;;;;;5115751;28;20117;-92
2023/03/25 01:28:53;;;;;;;3.63;3.42;;;;;;;;;;5116276;28;20491;-93
2023/03/25 01:31:21;;;;;;;7.85;7.32;;;;;;;;;;5114702;28;20615;-94
2023/03/25 01:33:48;;;;;;;3.60;3.38;;;;;;;;;;5115860;28;20122;-95
2023/03/25 01:36:15;;;;;;;6.85;6.20;;;;;;;;;;5115880;28;20059;-94
2023/03/25 01:38:42;;;;;;;5.25;4.85;;;;;;;;;;5115010;28;20055;-94
2023/03/25 01:41:09;;;;;;;4.53;4.25;;;;;;;;;;5116384;28;20047;-94
2023/03/25 01:43:37;;;;;;;6.53;5.22;;;;;;;;;;5115639;27;20469;-93
2023/03/25 01:46:03;;;;;;;3.55;3.33;;;;;;;;;;5115601;28;20099;-93
2023/03/25 01:48:34;;;;;;;4.95;4.75;;;;;;;;;;5115093;27;20051;-93
2023/03/25 01:51:04;;;;;;;3.75;3.55;;;;;;;;;;5113936;28;20054;-93
2023/03/25 01:53:32;;;;;;;6.45;4.00;;;;;;;;;;5114722;28;20059;-93
2023/03/25 01:56:01;;;;;;;4.13;3.92;;;;;;;;;;5114783;28;20445;-93
2023/03/25 01:58:29;;;;;;;5.57;5.18;;;;;;;;;;5114733;28;20047;-93
2023/03/25 02:00:57;;;;;;;5.88;5.57;;;;;;;;;;5114644;28;20126;-93
2023/03/25 02:03:24;;;;;;;4.53;4.22;;;;;;;;;;5114870;28;20051;-94
2023/03/25 02:05:54;;;;;;;5.07;4.88;;;;;;;;;;5114437;28;20051;-94
2023/03/25 02:08:22;;;;;;;3.72;3.42;;;;;;;;;;5114354;28;20051;-93
2023/03/25 02:10:48;;;;;;;4.45;4.18;;;;;;;;;;5115580;27;20105;-92
2023/03/25 02:13:15;;;;;;;7.40;6.72;;;;;;;;;;5115039;28;20051;-92
2023/03/25 02:15:50;;;;;;;4.82;4.55;;;;;;;;;;5117788;28;20077;-94
2023/03/25 02:18:31;;;;;;;3.00;2.80;;;;;;;;;;5118228;28;20453;-94
2023/03/25 02:21:13;;;;;;;5.80;5.60;;;;;;;;;;5120287;28;20482;-95
2023/03/25 02:23:57;;;;;;;3.17;2.97;;;;;;;;;;5119937;28;20039;-93
2023/03/25 02:26:40;;;;;;;4.10;3.90;;;;;;;;;;5119997;27;20093;-95
2023/03/25 02:29:07;;;;;;;;;;;;;;;;;;5119463;28;20048;-94
2023/03/25 02:31:54;;;;;;;4.05;3.85;;;;;;;;;;5120128;28;19923;-94
2023/03/25 02:34:42;;;;;;;4.55;4.13;;;;;;;;;;5119159;28;20120;-95
2023/03/25 02:37:21;;;;;;;2.97;2.83;;;;;;;;;;5116329;27;20487;-94
2023/03/25 02:39:52;;;;;;;4.95;4.65;;;;;;;;;;5122036;28;20398;-95
2023/03/25 02:42:22;;;;;;;4.53;4.22;;;;;;;;;;5119788;28;20080;-95
2023/03/25 02:44:52;;;;;;;4.57;3.85;;;;;;;;;;5122483;28;20051;-95
2023/03/25 02:47:19;;;;;;;3.67;3.47;;;;;;;;;;5122230;28;20444;-95
2023/03/25 02:49:48;;;;;;;4.78;4.50;;;;;;;;;;5122648;28;20043;-95
2023/03/25 02:52:16;;;;;;;3.90;3.70;;;;;;;;;;5122605;28;20057;-95
2023/03/25 02:54:44;;;;;;;2.58;2.38;;;;;;;;;;5121836;28;20066;-94
2023/03/25 02:57:14;;;;;;;3.72;3.40;;;;;;;;;;5120196;28;20495;-93
2023/03/25 02:59:41;;;;;;;4.28;4.00;;;;;;;;;;5117496;28;20133;-94
2023/03/25 03:02:10;;;;;;;3.85;3.65;;;;;;;;;;5119155;28;20721;-94
2023/03/25 03:04:54;;;;;;;4.03;3.65;;;;;;;;;;5118294;28;20055;-93
2023/03/25 03:07:23;;;;;;;5.25;3.95;;;;;;;;;;5118106;28;20487;-94
2023/03/25 03:09:53;;;;;;;3.97;3.63;;;;;;;;;;5118247;28;20039;-94
2023/03/25 03:12:32;;;;;;;3.90;3.70;;;;;;;;;;5118216;28;20052;-94
2023/03/25 03:15:04;;;;;;;4.45;4.15;;;;;;;;;;5117976;28;20063;-94
2023/03/25 03:17:36;;;;;;;3.63;3.35;;;;;;;;;;5111808;28;20490;-93
2023/03/25 03:20:07;;;;;;;4.13;3.83;;;;;;;;;;5118334;28;20051;-93
2023/03/25 03:22:37;;;;;;;4.07;3.78;;;;;;;;;;5118180;27;20047;-94
2023/03/25 03:25:06;;;;;;;3.72;3.55;;;;;;;;;;5116929;28;20047;-93
2023/03/25 03:27:38;;;;;;;4.10;3.83;;;;;;;;;;5098447;28;20445;-94
2023/03/25 03:30:08;;;;;;;3.00;2.88;;;;;;;;;;5096760;28;20047;-94
2023/03/25 03:32:38;;;;;;;4.35;4.05;;;;;;;;;;5100949;28;20043;-94
2023/03/25 03:35:08;;;;;;;3.40;3.22;;;;;;;;;;5119042;27;20133;-93
2023/03/25 03:37:36;;;;;;;4.90;4.47;;;;;;;;;;5119837;28;20437;-95
2023/03/25 03:40:04;;;;;;;4.13;3.92;;;;;;;;;;5119764;28;20487;-95
2023/03/25 03:42:34;;;;;;;3.65;3.35;;;;;;;;;;5121138;28;20058;-95
2023/03/25 03:45:03;;;;;;;5.05;4.65;;;;;;;;;;5120793;28;20100;-94
2023/03/25 03:47:32;;;;;;;4.28;4.07;;;;;;;;;;5117887;28;20040;-93
2023/03/25 03:49:59;;;;;;;3.88;3.63;;;;;;;;;;5116424;28;20088;-92
2023/03/25 03:52:28;;;;;;;5.03;4.63;;;;;;;;;;5117178;28;20116;-93
2023/03/25 03:54:56;;;;;;;3.50;3.30;;;;;;;;;;5118716;28;20544;-94
2023/03/25 03:57:25;;;;;;;4.55;4.25;;;;;;;;;;5117970;28;20823;-93
2023/03/25 03:59:56;;;;;;;3.30;3.10;;;;;;;;;;5118324;28;20048;-94
2023/03/25 04:02:27;;;;;;;5.90;5.50;;;;;;;;;;5117705;28;20047;-93
2023/03/25 04:04:54;;;;;;;4.00;3.80;;;;;;;;;;5117633;28;20047;-94
2023/03/25 04:07:23;;;;;;;3.17;2.88;;;;;;;;;;5115322;28;20127;-94
2023/03/25 04:09:55;;;;;;;2.85;2.55;;;;;;;;;;5116696;28;20052;-92
2023/03/25 04:12:23;;;;;;;2.42;2.33;;;;;;;;;;5116500;28;20052;-92
2023/03/25 04:14:49;;;;;;;4.93;4.63;;;;;;;;;;5116695;28;20089;-93
2023/03/25 04:17:16;;;;;;;4.50;4.20;;;;;;;;;;5116768;28;20096;-94
2023/03/25 04:19:47;;;;;;;3.45;3.22;;;;;;;;;;5111477;28;20127;-94
2023/03/25 04:22:15;;;;;;;2.60;2.50;;;;;;;;;;5096216;28;20055;-93
2023/03/25 04:24:42;;;;;;;4.93;4.57;;;;;;;;;;5106475;28;20101;-93
2023/03/25 04:27:12;;;;;;;4.72;4.43;;;;;;;;;;5116878;28;20060;-94
2023/03/25 04:29:39;;;;;;;5.75;3.88;;;;;;;;;;5117092;28;20044;-93
2023/03/25 04:32:07;;;;;;;4.80;4.50;;;;;;;;;;5116745;28;20043;-94
2023/03/25 04:34:33;;;;;;;4.55;4.15;;;;;;;;;;5116991;28;20048;-92
2023/03/25 04:37:02;;;;;;;3.25;3.13;;;;;;;;;;5116793;28;20043;-93
2023/03/25 04:39:31;;;;;;;5.13;4.75;;;;;;;;;;5116161;28;20048;-92
2023/03/25 04:42:00;;;;;;;3.63;3.35;;;;;;;;;;5110877;28;20059;-94
2023/03/25 04:44:27;;;;;;;3.78;3.58;;;;;;;;;;5116938;28;20051;-93
2023/03/25 04:46:54;;;;;;;3.75;2.90;;;;;;;;;;5116243;28;20044;-94
2023/03/25 04:49:22;;;;;;;5.13;4.40;;;;;;;;;;5117070;28;20052;-95
2023/03/25 04:51:50;;;;;;;4.57;4.22;;;;;;;;;;5119173;27;20056;-95
2023/03/25 04:54:18;;;;;;;3.97;3.67;;;;;;;;;;5119599;28;20525;-95
2023/03/25 04:56:46;;;;;;;5.00;4.63;;;;;;;;;;5118473;28;20445;-94
2023/03/25 04:59:13;;;;;;;4.75;4.45;;;;;;;;;;5115143;27;20135;-94
2023/03/25 05:01:41;;;;;;;5.38;4.95;;;;;;;;;;5116392;27;20494;-93
2023/03/25 05:04:11;;;;;;;5.07;4.57;;;;;;;;;;5116172;28;20396;-93
2023/03/25 05:06:38;;;;;;;5.13;4.63;;;;;;;;;;5117430;28;20154;-94
2023/03/25 05:09:05;;;;;;;4.85;4.03;;;;;;;;;;5117469;27;20044;-93
2023/03/25 05:11:35;;;;;;;4.55;4.30;;;;;;;;;;5118738;27;20464;-94
2023/03/25 05:14:02;;;;;;;6.20;3.88;;;;;;;;;;5118355;28;20055;-94
2023/03/25 05:16:29;;;;;;;5.07;4.75;;;;;;;;;;5117774;27;20499;-91
2023/03/25 05:18:55;;;;;;;5.60;5.13;;;;;;;;;;5113694;28;20055;-91
2023/03/25 05:21:22;;;;;;;7.85;7.35;;;;;;;;;;5115277;28;20047;-92
2023/03/25 05:23:48;;;;;;;5.13;4.35;;;;;;;;;;5115613;28;20728;-94
2023/03/25 05:26:15;;;;;;;5.90;5.40;;;;;;;;;;5116474;28;20487;-94
2023/03/25 05:28:43;;;;;;;6.90;6.45;;;;;;;;;;5116941;28;20055;-94
2023/03/25 05:31:09;;;;;;;5.72;5.40;;;;;;;;;;5116330;28;20048;-93
2023/03/25 05:33:42;;;;;;;7.18;6.50;;;;;;;;;;5114067;28;20047;-93
2023/03/25 05:36:09;;;;;;;4.03;3.72;;;;;;;;;;5115358;28;20562;-93
2023/03/25 05:38:37;;;;;;;5.72;5.38;;;;;;;;;;5115933;28;20047;-93
2023/03/25 05:41:03;;;;;;;6.18;5.57;;;;;;;;;;5115809;28;20064;-92
2023/03/25 05:43:34;;;;;;;6.25;5.95;;;;;;;;;;5115706;28;20044;-92
2023/03/25 05:46:03;;;;;;;6.63;6.10;;;;;;;;;;5114848;28;20046;-92
2023/03/25 05:48:31;;;;;;;6.93;6.45;;;;;;;;;;5114375;28;20050;-93
2023/03/25 05:50:58;;;;;;;6.90;5.57;;;;;;;;;;5115739;28;20056;-94
2023/03/25 05:53:25;;;;;;;5.97;5.68;;;;;;;;;;5115562;28;20067;-93
2023/03/25 05:55:51;;;;;;;6.15;5.75;;;;;;;;;;5115452;28;20410;-93
2023/03/25 05:58:18;;;;;;;7.18;6.43;;;;;;;;;;5115667;28;20097;-93
2023/03/25 06:00:46;;;;;;;6.00;5.70;;;;;;;;;;5115927;28;20050;-94
2023/03/25 06:03:14;;;;;;;5.10;4.78;;;;;;;;;;5115982;28;20064;-94
2023/03/25 06:05:41;;;;;;;6.15;4.75;;;;;;;;;;5114513;28;20055;-93
2023/03/25 06:08:07;;;;;;;5.25;4.75;;;;;;;;;;5116755;28;20047;-94
2023/03/25 06:10:34;;;;;;;5.50;5.15;;;;;;;;;;5116961;28;20430;-93
2023/03/25 06:13:00;;;;;;;5.20;4.45;;;;;;;;;;5116910;28;20082;-94
2023/03/25 06:15:37;;;;;;;6.43;5.97;;;;;;;;;;5116996;28;20051;-93
2023/03/25 06:18:04;;;;;;;8.00;7.47;;;;;;;;;;5116454;28;20047;-94
2023/03/25 06:20:32;;;;;;;6.60;5.72;;;;;;;;;;5115811;28;20052;-94
2023/03/25 06:22:59;;;;;;;6.65;6.00;;;;;;;;;;5114186;28;20044;-94
2023/03/25 06:25:27;;;;;;;5.90;5.40;;;;;;;;;;5098510;28;20125;-94
2023/03/25 06:27:54;;;;;;;6.97;6.40;;;;;;;;;;5096715;28;20056;-94
2023/03/25 06:30:21;;;;;;;6.38;5.97;;;;;;;;;;5096174;28;20048;-94
2023/03/25 06:32:49;;;;;;;9.13;8.63;;;;;;;;;;5096165;28;20051;-94
2023/03/25 06:35:18;;;;;;;7.35;6.75;;;;;;;;;;5095023;28;20078;-94
2023/03/25 06:37:47;;;;;;;7.78;7.00;;;;;;;;;;5095615;28;20048;-93
2023/03/25 06:40:14;;;;;;;6.60;5.97;;;;;;;;;;5098809;28;20135;-93
2023/03/25 06:42:41;;;;;;;8.00;7.28;;;;;;;;;;5115184;28;20506;-94
2023/03/25 06:45:08;;;;;;;6.30;5.70;;;;;;;;;;5115724;28;20065;-94
2023/03/25 06:47:34;;;;;;;8.63;8.02;;;;;;;;;;5116215;28;20453;-94
2023/03/25 06:50:01;;;;;;;5.97;5.60;;;;;;;;;;5115464;27;20047;-94
2023/03/25 06:52:27;;;;;;;5.35;4.97;;;;;;;;;;5116263;28;20044;-94
2023/03/25 06:54:55;;;;;;;7.65;7.15;;;;;;;;;;5115748;28;20052;-94
2023/03/25 06:57:22;;;;;;;6.72;6.32;;;;;;;;;;5114397;28;20047;-93
2023/03/25 06:59:48;;;;;;;6.50;6.10;;;;;;;;;;5115496;28;20570;-95
2023/03/25 07:02:15;;;;;;;8.38;7.60;;;;;;;;;;5101052;28;20106;-93
2023/03/25 07:04:42;;;;;;;8.27;7.70;;;;;;;;;;5094712;28;20498;-94
2023/03/25 07:07:09;;;;;;;8.40;7.75;;;;;;;;;;5097368;28;20098;-93
2023/03/25 07:09:36;;;;;;;9.00;8.55;;;;;;;;;;5098073;28;20450;-93
2023/03/25 07:12:04;;;;;;;9.10;8.43;;;;;;;;;;5098418;28;20052;-93
2023/03/25 07:14:31;;;;;;;8.60;8.20;;;;;;;;;;5099329;28;20040;-94
2023/03/25 07:16:57;;;;;;;9.95;9.18;;;;;;;;;;5106731;28;20491;-95
2023/03/25 07:19:24;;;;;;;7.97;7.47;;;;;;;;;;5121312;28;20073;-94
2023/03/25 07:21:51;;;;;;;9.18;8.32;;;;;;;;;;5119815;28;20043;-92
2023/03/25 07:24:20;;;;;;;11.52;10.73;;;;;;;;;;5129682;28;20048;-91
2023/03/25 07:29:32;;;;;;;13.48;12.48;;;;;;;;;;5120508;28;20059;-92
2023/03/25 07:31:58;;;;;;;13.07;9.70;;;;;;;;;;5121642;28;20384;-92
2023/03/25 07:34:25;;;;;;;8.63;8.02;;;;;;;;;;5117528;28;20051;-93
2023/03/25 07:36:52;;;;;;;9.15;8.55;;;;;;;;;;5112280;28;20060;-93
2023/03/25 07:39:18;;;;;;;9.73;8.93;;;;;;;;;;5117616;28;20054;-92
2023/03/25 07:41:46;;;;;;;12.38;11.57;;;;;;;;;;5117513;27;20047;-92
2023/03/25 07:44:13;;;;;;;10.05;9.35;;;;;;;;;;5117161;28;20082;-93
2023/03/25 07:46:41;;;;;;;10.07;9.48;;;;;;;;;;5117242;28;20062;-92
2023/03/25 07:49:07;;;;;;;10.57;9.77;;;;;;;;;;5116754;28;20055;-91
2023/03/25 07:51:34;;;;;;;9.55;8.85;;;;;;;;;;5105859;28;20059;-93
2023/03/25 07:54:00;;;;;;;8.40;7.70;;;;;;;;;;5095861;28;20044;-93
2023/03/25 07:56:27;;;;;;;9.25;8.73;;;;;;;;;;5105307;28;20445;-91
2023/03/25 07:58:53;;;;;;;10.75;10.15;;;;;;;;;;5118267;28;20052;-92
2023/03/25 08:01:20;;;;;;;11.00;10.18;;;;;;;;;;5117328;28;20081;-92
2023/03/25 08:03:48;;;;;;;11.13;10.15;;;;;;;;;;5117157;28;20101;-92
2023/03/25 08:06:14;;;;;;;11.65;10.70;;;;;;;;;;5117504;28;20566;-92
2023/03/25 08:08:41;;;;;;;12.38;11.45;;;;;;;;;;5115495;28;20090;-92
2023/03/25 08:11:08;;;;;;;10.38;9.60;;;;;;;;;;5114014;28;20701;-92
2023/03/25 08:13:34;;;;;;;11.02;10.32;;;;;;;;;;5116832;28;20092;-93
2023/03/25 08:16:01;;;;;;;12.90;12.07;;;;;;;;;;5116245;27;20044;-92
2023/03/25 08:18:28;;;;;;;12.73;11.80;;;;;;;;;;5117639;28;20574;-91
2023/03/25 08:20:56;;;;;;;11.75;10.93;;;;;;;;;;5117559;28;20072;-93
2023/03/25 08:23:25;;;;;;;16.40;15.23;;;;;;;;;;5116893;28;20051;-93
2023/03/25 08:25:54;;;;;;;14.85;13.75;;;;;;;;;;5099928;28;20048;-93
2023/03/25 08:28:22;;;;;;;12.23;11.52;;;;;;;;;;5113173;28;20061;-92
2023/03/25 08:30:49;;;;;;;16.00;14.90;;;;;;;;;;5116697;28;20059;-94
2023/03/25 08:33:17;;;;;;;14.70;14.00;;;;;;;;;;5118193;28;20476;-93
2023/03/25 08:35:44;;;;;;;13.05;12.27;;;;;;;;;;5120574;28;20035;-92
2023/03/25 08:38:13;;;;;;;13.50;12.70;;;;;;;;;;5120330;28;20522;-89
2023/03/25 08:40:40;;;;;;;14.15;13.25;;;;;;;;;;5122893;28;20051;-89
2023/03/25 08:43:07;;;;;;;14.43;13.73;;;;;;;;;;5125290;28;20059;-90
2023/03/25 08:45:35;;;;;;;13.85;13.05;;;;;;;;;;5122876;28;20056;-90
2023/03/25 08:48:02;;;;;;;11.75;11.00;;;;;;;;;;5125686;28;20075;-90
2023/03/25 08:50:28;;;;;;;12.38;11.65;;;;;;;;;;5125135;28;20083;-90
2023/03/25 08:52:57;;;;;;;13.55;12.75;;;;;;;;;;5126716;28;20044;-89
2023/03/25 08:55:25;;;;;;;13.00;12.20;;;;;;;;;;5124860;28;20551;-90
2023/03/25 08:57:52;;;;;;;12.23;11.50;;;;;;;;;;5125981;28;20050;-90
2023/03/25 09:00:22;;;;;;;15.50;14.75;;;;;;;;;;5124820;28;20062;-89
2023/03/25 09:02:49;;;;;;;14.95;13.95;;;;;;;;;;5125177;28;20055;-90
2023/03/25 09:05:16;;;;;;;14.13;13.32;;;;;;;;;;5120855;28;20073;-90
2023/03/25 09:07:42;;;;;;;15.98;14.68;;;;;;;;;;5122563;28;20109;-90
2023/03/25 09:10:14;;;;;;;10.70;10.00;;;;;;;;;;5112814;28;20112;-91
2023/03/25 09:12:42;;;;;;;12.85;12.07;;;;;;;;;;5118239;28;20047;-91
2023/03/25 09:15:09;;;;;;;15.27;14.32;;;;;;;;;;5128261;28;20051;-91
2023/03/25 09:17:37;;;;;;;17.50;16.45;;;;;;;;;;5123856;28;20051;-91
2023/03/25 09:20:04;;;;;;;18.08;17.08;;;;;;;;;;5116939;27;20069;-90
2023/03/25 09:22:31;;;;;;;16.17;15.18;;;;;;;;;;5117676;28;20387;-89
2023/03/25 09:24:57;;;;;;;13.55;12.80;;;;;;;;;;5118701;28;20131;-91
2023/03/25 09:27:24;;;;;;;17.23;16.42;;;;;;;;;;5118133;28;20056;-89
2023/03/25 09:29:52;;;;;;;16.75;15.80;;;;;;;;;;5117257;28;20069;-90
2023/03/25 09:32:19;;;;;;;15.57;14.77;;;;;;;;;;5116106;28;20052;-89
2023/03/25 09:34:46;;;;;;;15.77;14.65;;;;;;;;;;5114256;28;20043;-88
2023/03/25 09:37:12;;;;;;;13.85;12.90;;;;;;;;;;5114485;28;20081;-89
2023/03/25 09:39:39;;;;;;;15.40;14.48;;;;;;;;;;5113333;28;20108;-90
2023/03/25 09:42:13;;;;;;;14.90;13.90;;;;;;;;;;5115113;28;20124;-92
2023/03/25 09:44:51;;;;;;;15.43;14.43;;;;;;;;;;5115231;28;20092;-90
2023/03/25 09:47:20;;;;;;;16.80;15.90;;;;;;;;;;5117586;28;20084;-90
2023/03/25 09:49:52;;;;;;;16.13;15.13;;;;;;;;;;5117371;28;20104;-92
2023/03/25 09:52:21;;;;;;;20.15;19.23;;;;;;;;;;5118968;28;20418;-91
2023/03/25 09:54:49;;;;;;;16.48;15.45;;;;;;;;;;5118184;28;20483;-91
2023/03/25 09:57:18;;;;;;;19.88;18.88;;;;;;;;;;5119282;28;20044;-90
2023/03/25 09:59:47;;;;;;;17.10;15.90;;;;;;;;;;5117349;28;20448;-90
2023/03/25 10:02:21;;;;;;;20.05;18.92;;;;;;;;;;5116969;28;20475;-90
2023/03/25 10:05:02;;;;;;;20.13;19.00;;;;;;;;;;5130526;28;20093;-91
2023/03/25 10:07:36;;;;;;;24.10;22.92;;;;;;;;;;5126154;28;20048;-92
2023/03/25 10:10:06;;;;;;;18.02;17.13;;;;;;;;;;5124471;28;20056;-91
2023/03/25 10:12:37;;;;;;;17.30;16.35;;;;;;;;;;5124674;28;20100;-91
2023/03/25 10:15:11;;;;;;;32.33;30.90;;;;;;;;;;5122596;28;20055;-90
2023/03/25 10:17:39;;;;;;;21.00;19.83;;;;;;;;;;5122704;28;20048;-92
2023/03/25 10:20:08;;;;;;;18.98;18.00;;;;;;;;;;5119200;28;20057;-91
2023/03/25 10:22:40;;;;;;;21.02;20.08;;;;;;;;;;5117914;28;20124;-91
2023/03/25 10:25:09;;;;;;;22.83;21.52;;;;;;;;;;5118994;28;20056;-92
2023/03/25 10:27:38;;;;;;;25.58;24.42;;;;;;;;;;5121881;28;20058;-91
2023/03/25 10:30:10;;;;;;;25.92;24.83;;;;;;;;;;5119692;28;20469;-92
2023/03/25 10:32:39;;;;;;;28.48;27.23;;;;;;;;;;5119830;28;20077;-90
2023/03/25 10:35:10;;;;;;;22.48;21.55;;;;;;;;;;5121421;28;20429;-89
2023/03/25 10:37:40;;;;;;;23.00;21.98;;;;;;;;;;5118013;28;20458;-92
2023/03/25 10:40:13;;;;;;;20.10;19.13;;;;;;;;;;5125080;28;20483;-93
2023/03/25 10:42:41;;;;;;;22.80;21.67;;;;;;;;;;5125163;28;20139;-92
2023/03/25 10:45:12;;;;;;;32.00;30.67;;;;;;;;;;5125507;28;20047;-91
2023/03/25 10:47:40;;;;;;;27.42;26.08;;;;;;;;;;5122297;28;20465;-92
2023/03/25 10:50:10;;;;;;;32.42;31.08;;;;;;;;;;5129480;28;20044;-92
2023/03/25 10:52:38;;;;;;;22.02;21.00;;;;;;;;;;5126706;28;20112;-92
2023/03/25 10:55:06;;;;;;;33.33;32.03;;;;;;;;;;5126027;28;20039;-93
2023/03/25 10:57:32;;;;;;;26.88;25.83;;;;;;;;;;5124476;28;20069;-93
2023/03/25 11:00:03;;;;;;;20.08;19.17;;;;;;;;;;5127673;28;20073;-92
2023/03/25 11:02:31;;;;;;;24.92;23.95;;;;;;;;;;5127211;28;20070;-92
2023/03/25 11:04:59;;;;;;;18.80;18.05;;;;;;;;;;5122886;28;20112;-92
2023/03/25 11:07:29;;;;;;;27.08;26.00;;;;;;;;;;5122666;28;20073;-92
2023/03/25 11:10:09;;;;;;;20.25;19.45;;;;;;;;;;5128088;28;20491;-94
2023/03/25 11:12:36;;;;;;;19.40;18.58;;;;;;;;;;5124183;28;20059;-92
2023/03/25 11:15:02;;;;;;;28.38;27.35;;;;;;;;;;5105352;28;20052;-92
2023/03/25 11:17:29;;;;;;;18.75;18.00;;;;;;;;;;5104559;28;20043;-92
2023/03/25 11:19:59;;;;;;;21.65;20.77;;;;;;;;;;5108263;28;20517;-93
2023/03/25 11:22:27;;;;;;;33.22;31.92;;;;;;;;;;5104792;28;20083;-92
2023/03/25 11:24:58;;;;;;;18.70;17.77;;;;;;;;;;5106046;28;20052;-93
2023/03/25 11:27:27;;;;;;;23.25;22.23;;;;;;;;;;5110241;28;20065;-92
2023/03/25 11:29:56;;;;;;;23.63;22.60;;;;;;;;;;5125058;28;20044;-93
2023/03/25 11:32:24;;;;;;;28.58;27.45;;;;;;;;;;5125690;28;20053;-93
2023/03/25 11:34:53;;;;;;;22.98;21.95;;;;;;;;;;5128019;28;20069;-95
2023/03/25 11:37:21;;;;;;;27.52;26.45;;;;;;;;;;5118270;27;20063;-93
2023/03/25 11:39:53;;;;;;;25.27;24.05;;;;;;;;;;5118707;28;20067;-94
2023/03/25 11:42:27;;;;;;;23.27;22.35;;;;;;;;;;5121053;28;20077;-94
2023/03/25 11:44:58;;;;;;;32.85;31.58;;;;;;;;;;5118029;28;20067;-95
2023/03/25 11:47:26;;;;;;;30.67;29.38;;;;;;;;;;5128346;28;20059;-91
2023/03/25 11:49:53;;;;;;;25.55;24.42;;;;;;;;;;5125780;28;20052;-95
2023/03/25 11:52:21;;;;;;;38.75;37.30;;;;;;;;;;5127066;28;20048;-94
2023/03/25 11:54:48;;;;;;;34.75;33.42;;;;;;;;;;5127094;28;20052;-95
2023/03/25 11:57:18;;;;;;;31.58;30.30;;;;;;;;;;5129449;28;20044;-93
2023/03/25 11:59:46;;;;;;;29.45;28.33;;;;;;;;;;5126146;28;20048;-92
2023/03/25 12:02:24;;;;;;;30.65;29.45;;;;;;;;;;5125631;28;20047;-93
2023/03/25 12:04:55;;;;;;;34.05;32.78;;;;;;;;;;5129199;28;20043;-93
2023/03/25 12:07:23;;;;;;;28.58;27.48;;;;;;;;;;5128051;28;20054;-93
2023/03/25 12:09:54;;;;;;;29.70;28.48;;;;;;;;;;5126579;28;20419;-92
2023/03/25 12:12:25;;;;;;;25.27;24.17;;;;;;;;;;5126017;28;20438;-92
2023/03/25 12:15:01;;;;;;;26.38;25.15;;;;;;;;;;5129460;28;20055;-93
2023/03/25 12:17:36;;;;;;;28.45;27.35;;;;;;;;;;5122162;28;20130;-95
2023/03/25 12:20:10;;;;;;;21.85;20.85;;;;;;;;;;5120233;28;20082;-91
2023/03/25 12:22:46;;;;;;;21.77;20.83;;;;;;;;;;5120759;28;20501;-92
2023/03/25 12:25:17;;;;;;;24.45;23.52;;;;;;;;;;5127586;28;20043;-93
2023/03/25 12:27:51;;;;;;;29.33;28.10;;;;;;;;;;5122137;28;20052;-93
2023/03/25 12:30:25;;;;;;;19.33;18.50;;;;;;;;;;5123506;28;20567;-92
2023/03/25 12:32:58;;;;;;;23.10;22.17;;;;;;;;;;5119099;28;20062;-92
2023/03/25 12:35:30;;;;;;;25.83;24.67;;;;;;;;;;5118360;28;20047;-91
2023/03/25 12:38:15;;;;;;;21.98;21.08;;;;;;;;;;5115182;28;20071;-91
2023/03/25 12:40:51;;;;;;;22.88;21.95;;;;;;;;;;5117241;28;20116;-92
2023/03/25 12:43:22;;;;;;;22.92;22.05;;;;;;;;;;5116453;28;20040;-92
2023/03/25 12:46:06;;;;;;;31.10;29.85;;;;;;;;;;5116850;28;20051;-94
2023/03/25 12:48:54;;;;;;;28.58;27.15;;;;;;;;;;5117080;28;20082;-90
2023/03/25 12:51:25;;;;;;;24.95;23.95;;;;;;;;;;5096756;28;20051;-93
2023/03/25 12:53:56;;;;;;;23.60;22.67;;;;;;;;;;5108789;28;20044;-93
2023/03/25 12:56:29;;;;;;;21.15;20.23;;;;;;;;;;5117102;28;20771;-93
2023/03/25 12:59:22;;;;;;;21.80;20.92;;;;;;;;;;5117136;28;20108;-94
2023/03/25 13:01:53;;;;;;;23.95;23.00;;;;;;;;;;5037712;28;20049;-95
2023/03/25 13:04:29;;;;;;;23.02;22.13;;;;;;;;;;5020470;28;20553;-93
2023/03/25 13:07:00;;;;;;;21.30;20.40;;;;;;;;;;5053339;28;20045;-93
2023/03/25 13:09:31;;;;;;;20.25;19.33;;;;;;;;;;5044470;28;20123;-94
2023/03/25 13:11:59;;;;;;;19.20;18.45;;;;;;;;;;5035014;28;20064;-95
2023/03/25 13:14:29;;;;;;;17.52;16.80;;;;;;;;;;5052368;28;20134;-93
2023/03/25 13:16:58;;;;;;;23.83;22.90;;;;;;;;;;5049252;28;20060;-93
2023/03/25 13:19:27;;;;;;;19.90;19.00;;;;;;;;;;5048827;28;20049;-95
2023/03/25 13:21:56;;;;;;;21.88;21.05;;;;;;;;;;5033713;28;20529;-93
2023/03/25 13:24:25;;;;;;;18.13;17.35;;;;;;;;;;5019555;28;20109;-93
2023/03/25 13:26:52;;;;;;;21.58;20.67;;;;;;;;;;5018800;28;20504;-93
2023/03/25 13:29:26;;;;;;;23.63;22.63;;;;;;;;;;5037466;28;20143;-93
2023/03/25 13:31:55;;;;;;;18.75;17.98;;;;;;;;;;5033110;28;20524;-94
2023/03/25 13:34:27;;;;;;;22.75;21.83;;;;;;;;;;5045315;28;20508;-94
2023/03/25 13:37:02;;;;;;;19.08;18.17;;;;;;;;;;5068502;28;20104;-94
2023/03/25 13:39:33;;;;;;;23.98;22.98;;;;;;;;;;5126260;28;20043;-94
2023/03/25 13:42:03;;;;;;;19.45;18.58;;;;;;;;;;5128741;28;20111;-92
2023/03/25 13:44:32;;;;;;;14.93;14.23;;;;;;;;;;5126279;28;20104;-94
2023/03/25 13:47:01;;;;;;;14.02;13.43;;;;;;;;;;5123636;28;20120;-93
2023/03/25 13:49:30;;;;;;;18.15;17.40;;;;;;;;;;5104486;28;20051;-94
2023/03/25 13:51:58;;;;;;;15.40;14.68;;;;;;;;;;5096367;28;20074;-94
2023/03/25 13:54:28;;;;;;;16.27;15.60;;;;;;;;;;5097755;28;20102;-94
2023/03/25 13:57:12;;;;;;;12.48;11.98;;;;;;;;;;5096814;28;20051;-94
2023/03/25 13:59:56;;;;;;;13.30;12.63;;;;;;;;;;5097743;28;20043;-93
2023/03/25 14:02:39;;;;;;;16.00;15.32;;;;;;;;;;5084466;28;20052;-92
2023/03/25 14:05:27;;;;;;;13.45;12.75;;;;;;;;;;5094596;28;20052;-93
2023/03/25 14:08:01;;;;;;;10.70;10.18;;;;;;;;;;5094621;28;20055;-91
2023/03/25 14:10:50;;;;;;;10.70;10.20;;;;;;;;;;5094494;28;20044;-92
2023/03/25 14:13:18;;;;;;;9.40;8.90;;;;;;;;;;5096280;28;20048;-92
2023/03/25 14:15:51;;;;;;;8.23;7.80;;;;;;;;;;5119105;28;20048;-92
2023/03/25 14:18:18;;;;;;;9.65;8.82;;;;;;;;;;5116973;28;20086;-92
2023/03/25 14:20:45;;;;;;;11.35;10.85;;;;;;;;;;5119813;28;20074;-92
2023/03/25 14:23:14;;;;;;;10.32;9.82;;;;;;;;;;5119718;28;20449;-90
2023/03/25 14:25:42;;;;;;;11.48;10.98;;;;;;;;;;5119080;28;20147;-91
2023/03/25 14:28:15;;;;;;;9.40;9.00;;;;;;;;;;5118925;28;20093;-91
2023/03/25 14:30:42;;;;;;;10.77;10.27;;;;;;;;;;5097998;28;20388;-91
2023/03/25 14:33:09;;;;;;;11.18;10.68;;;;;;;;;;5097536;28;20562;-92
2023/03/25 14:35:57;;;;;;;11.20;10.57;;;;;;;;;;5116003;28;20047;-91
2023/03/25 14:38:48;;;;;;;7.95;7.65;;;;;;;;;;5118061;28;20047;-91
2023/03/25 14:41:14;;;;;;;9.45;9.05;;;;;;;;;;5118106;28;20043;-92
2023/03/25 14:43:46;;;;;;;9.73;9.32;;;;;;;;;;5117786;28;20055;-93
2023/03/25 14:46:22;;;;;;;9.43;9.02;;;;;;;;;;5118541;28;20065;-92